createdAt,value
2016-12-04T00:00:28.251Z,4.19
2016-12-04T00:01:28.253Z,4.17
2016-12-04T00:02:27.949Z,4.22
2016-12-04T00:03:27.963Z,4.04
2016-12-04T00:04:28.296Z,4.16
2016-12-04T00:05:28.309Z,3.99
2016-12-04T00:06:28.319Z,3.83
2016-12-04T00:07:28.016Z,3.98
2016-12-04T00:08:28.345Z,3.77
2016-12-04T00:09:28.357Z,3.59
2016-12-04T00:10:28.370Z,3.44
2016-12-04T00:11:28.382Z,3.6
2016-12-04T00:12:28.394Z,3.6
2016-12-04T00:13:28.414Z,3.69
2016-12-04T00:14:28.418Z,3.6
2016-12-04T00:15:28.434Z,3.78
2016-12-04T00:16:28.444Z,3.81
2016-12-04T00:17:28.782Z,3.96
2016-12-04T00:18:28.787Z,3.95
2016-12-04T00:19:28.482Z,3.98
2016-12-04T00:20:28.809Z,3.83
2016-12-04T00:21:28.212Z,3.87
2016-12-04T00:22:28.557Z,3.81
2016-12-04T00:23:28.532Z,3.84
2016-12-04T00:24:28.544Z,3.77
2016-12-04T00:25:28.599Z,3.65
2016-12-04T00:26:28.566Z,3.65
2016-12-04T00:27:28.267Z,3.76
2016-12-04T00:28:28.600Z,3.74
2016-12-04T00:29:28.292Z,3.78
2016-12-04T00:30:28.937Z,3.86
2016-12-04T00:31:28.979Z,3.87
2016-12-04T00:32:28.331Z,4.02
2016-12-04T00:33:28.971Z,4.05
2016-12-04T00:34:28.990Z,3.91
2016-12-04T00:35:28.687Z,4.01
2016-12-04T00:36:28.695Z,4.1
2016-12-04T00:37:28.407Z,4.16
2016-12-04T00:38:28.726Z,4.02
2016-12-04T00:39:28.425Z,4.04
2016-12-04T00:40:29.074Z,3.81
2016-12-04T00:41:29.077Z,3.87
2016-12-04T00:42:28.781Z,3.81
2016-12-04T00:43:28.794Z,4.02
2016-12-04T00:44:29.111Z,3.91
2016-12-04T00:45:28.813Z,3.76
2016-12-04T00:46:28.826Z,3.68
2016-12-04T00:47:29.156Z,3.77
2016-12-04T00:48:28.851Z,3.87
2016-12-04T00:49:28.546Z,3.88
2016-12-04T00:50:28.881Z,3.81
2016-12-04T00:51:28.889Z,3.59
2016-12-04T00:52:28.902Z,3.55
2016-12-04T00:53:28.599Z,3.51
2016-12-04T00:54:28.926Z,3.63
2016-12-04T00:55:28.943Z,3.59
2016-12-04T00:56:28.638Z,3.58
2016-12-04T00:57:29.282Z,3.66
2016-12-04T00:58:28.661Z,3.69
2016-12-04T00:59:28.991Z,3.86
2016-12-04T01:00:29.324Z,3.7
2016-12-04T01:01:29.333Z,3.65
2016-12-04T01:02:29.029Z,3.7
2016-12-04T01:03:29.046Z,3.56
2016-12-04T01:04:29.390Z,3.65
2016-12-04T01:05:29.381Z,3.58
2016-12-04T01:06:29.398Z,3.63
2016-12-04T01:07:29.092Z,3.68
2016-12-04T01:08:29.106Z,3.6
2016-12-04T01:09:29.120Z,3.55
2016-12-04T01:10:29.132Z,3.58
2016-12-04T01:11:28.829Z,3.62
2016-12-04T01:12:28.837Z,3.59
2016-12-04T01:13:29.483Z,3.68
2016-12-04T01:14:29.182Z,3.81
2016-12-04T01:15:29.511Z,3.77
2016-12-04T01:16:29.204Z,3.8
2016-12-04T01:17:28.904Z,3.78
2016-12-04T01:18:29.233Z,3.7
2016-12-04T01:19:29.589Z,3.81
2016-12-04T01:20:29.257Z,3.78
2016-12-04T01:21:28.953Z,3.69
2016-12-04T01:22:29.278Z,3.56
2016-12-04T01:23:29.608Z,3.65
2016-12-04T01:24:29.317Z,3.62
2016-12-04T01:25:29.012Z,3.56
2016-12-04T01:26:29.330Z,3.74
2016-12-04T01:27:29.343Z,3.65
2016-12-04T01:28:29.359Z,3.48
2016-12-04T01:29:29.715Z,3.51
2016-12-04T01:30:29.380Z,3.42
2016-12-04T01:31:29.075Z,3.31
2016-12-04T01:32:29.739Z,3.37
2016-12-04T01:33:29.738Z,3.32
2016-12-04T01:34:29.430Z,3.31
2016-12-04T01:35:29.128Z,3.28
2016-12-04T01:36:29.801Z,3.44
2016-12-04T01:37:29.471Z,3.55
2016-12-04T01:38:29.483Z,3.53
2016-12-04T01:39:29.808Z,3.36
2016-12-04T01:40:29.189Z,3.44
2016-12-04T01:41:29.518Z,3.51
2016-12-04T01:42:29.529Z,3.34
2016-12-04T01:43:29.542Z,3.4
2016-12-04T01:44:29.564Z,3.45
2016-12-04T01:45:29.569Z,3.36
2016-12-04T01:46:29.896Z,3.41
2016-12-04T01:47:29.595Z,3.48
2016-12-04T01:48:29.311Z,3.44
2016-12-04T01:49:29.619Z,3.51
2016-12-04T01:50:29.315Z,3.63
2016-12-04T01:51:29.966Z,3.78
2016-12-04T01:52:29.972Z,3.66
2016-12-04T01:53:29.668Z,3.7
2016-12-04T01:54:29.998Z,3.78
2016-12-04T01:55:29.693Z,3.66
2016-12-04T01:56:29.394Z,3.51
2016-12-04T01:57:29.404Z,3.65
2016-12-04T01:58:30.046Z,3.83
2016-12-04T01:59:29.746Z,3.8
2016-12-04T02:00:29.759Z,3.8
2016-12-04T02:01:30.093Z,3.83
2016-12-04T02:02:29.466Z,3.83
2016-12-04T02:03:30.108Z,3.81
2016-12-04T02:04:30.128Z,3.8
2016-12-04T02:05:29.824Z,3.94
2016-12-04T02:06:29.837Z,3.83
2016-12-04T02:07:30.163Z,3.84
2016-12-04T02:08:29.555Z,3.87
2016-12-04T02:09:29.567Z,3.96
2016-12-04T02:10:29.897Z,4.05
2016-12-04T02:11:29.897Z,4.01
2016-12-04T02:12:29.910Z,4.02
2016-12-04T02:13:29.606Z,3.98
2016-12-04T02:14:30.251Z,3.86
2016-12-04T02:15:30.284Z,3.83
2016-12-04T02:16:29.960Z,3.8
2016-12-04T02:17:29.656Z,3.83
2016-12-04T02:18:29.985Z,3.69
2016-12-04T02:19:29.996Z,3.74
2016-12-04T02:20:30.012Z,3.74
2016-12-04T02:21:29.706Z,3.78
2016-12-04T02:22:30.038Z,3.83
2016-12-04T02:23:30.048Z,3.8
2016-12-04T02:24:30.377Z,3.95
2016-12-04T02:25:30.071Z,3.96
2016-12-04T02:26:30.414Z,3.8
2016-12-04T02:27:30.109Z,3.73
2016-12-04T02:28:30.428Z,3.76
2016-12-04T02:29:30.124Z,3.8
2016-12-04T02:30:30.448Z,3.84
2016-12-04T02:31:29.834Z,3.77
2016-12-04T02:32:30.161Z,3.69
2016-12-04T02:33:30.492Z,3.59
2016-12-04T02:34:29.895Z,3.56
2016-12-04T02:35:30.198Z,3.55
2016-12-04T02:36:29.908Z,3.68
2016-12-04T02:37:29.910Z,3.73
2016-12-04T02:38:30.241Z,3.76
2016-12-04T02:39:29.934Z,3.51
2016-12-04T02:40:30.265Z,3.56
2016-12-04T02:41:30.274Z,3.58
2016-12-04T02:42:30.291Z,3.56
2016-12-04T02:43:30.301Z,3.62
2016-12-04T02:44:30.315Z,3.51
2016-12-04T02:45:30.325Z,3.55
2016-12-04T02:46:30.654Z,3.34
2016-12-04T02:47:30.669Z,3.29
2016-12-04T02:48:30.678Z,3.22
2016-12-04T02:49:30.689Z,3.19
2016-12-04T02:50:30.388Z,3.22
2016-12-04T02:51:30.103Z,3.29
2016-12-04T02:52:30.428Z,3.32
2016-12-04T02:53:30.742Z,3.34
2016-12-04T02:54:30.751Z,3.22
2016-12-04T02:55:30.162Z,3.21
2016-12-04T02:56:30.468Z,3.23
2016-12-04T02:57:30.157Z,3.23
2016-12-04T02:58:30.494Z,3.22
2016-12-04T02:59:30.180Z,3.28
2016-12-04T03:00:30.510Z,3.32
2016-12-04T03:01:30.843Z,3.5
2016-12-04T03:02:30.223Z,3.53
2016-12-04T03:03:30.233Z,3.51
2016-12-04T03:04:30.564Z,3.6
2016-12-04T03:05:30.260Z,3.34
2016-12-04T03:06:30.272Z,3.29
2016-12-04T03:07:30.912Z,3.45
2016-12-04T03:08:30.610Z,3.59
2016-12-04T03:09:30.629Z,3.58
2016-12-04T03:10:30.321Z,3.6
2016-12-04T03:11:30.646Z,3.5
2016-12-04T03:12:30.976Z,3.5
2016-12-04T03:13:30.988Z,3.41
2016-12-04T03:14:30.684Z,3.34
2016-12-04T03:15:31.010Z,3.5
2016-12-04T03:16:30.708Z,3.6
2016-12-04T03:17:30.728Z,3.53
2016-12-04T03:18:30.736Z,3.55
2016-12-04T03:19:31.080Z,3.69
2016-12-04T03:20:31.084Z,3.74
2016-12-04T03:21:30.780Z,3.65
2016-12-04T03:22:31.098Z,3.51
2016-12-04T03:23:30.797Z,3.68
2016-12-04T03:24:31.124Z,3.56
2016-12-04T03:25:30.826Z,3.41
2016-12-04T03:26:30.845Z,3.51
2016-12-04T03:27:30.846Z,3.62
2016-12-04T03:28:31.176Z,3.59
2016-12-04T03:29:31.184Z,3.51
2016-12-04T03:30:30.566Z,3.36
2016-12-04T03:31:30.905Z,3.48
2016-12-04T03:32:31.220Z,3.53
2016-12-04T03:33:30.605Z,3.51
2016-12-04T03:34:30.932Z,3.47
2016-12-04T03:35:30.944Z,3.26
2016-12-04T03:36:30.955Z,3.25
2016-12-04T03:37:30.970Z,3.19
2016-12-04T03:38:31.298Z,3.22
2016-12-04T03:39:30.996Z,3.32
2016-12-04T03:40:31.008Z,3.37
2016-12-04T03:41:31.337Z,3.28
2016-12-04T03:42:31.346Z,3.23
2016-12-04T03:43:30.731Z,3.16
2016-12-04T03:44:31.374Z,3.19
2016-12-04T03:45:31.070Z,3.23
2016-12-04T03:46:31.396Z,3.19
2016-12-04T03:47:31.408Z,3.21
2016-12-04T03:48:31.432Z,3.16
2016-12-04T03:49:31.122Z,3.14
2016-12-04T03:50:31.131Z,3.16
2016-12-04T03:51:31.141Z,3.19
2016-12-04T03:52:31.154Z,3.29
2016-12-04T03:53:31.478Z,3.25
2016-12-04T03:54:31.179Z,3.08
2016-12-04T03:55:31.513Z,3.22
2016-12-04T03:56:30.890Z,3.18
2016-12-04T03:57:30.903Z,3
2016-12-04T03:58:31.229Z,3.13
2016-12-04T03:59:30.925Z,3.11
2016-12-04T04:00:31.566Z,3.03
2016-12-04T04:01:31.267Z,3.08
2016-12-04T04:02:31.274Z,2.83
2016-12-04T04:03:30.995Z,2.82
2016-12-04T04:04:31.615Z,2.77
2016-12-04T04:05:31.018Z,2.93
2016-12-04T04:06:31.648Z,3.08
2016-12-04T04:07:31.020Z,3.04
2016-12-04T04:08:31.352Z,2.97
2016-12-04T04:09:31.365Z,2.95
2016-12-04T04:10:31.060Z,3.16
2016-12-04T04:11:31.385Z,3.13
2016-12-04T04:12:31.403Z,3.19
2016-12-04T04:13:31.414Z,3.21
2016-12-04T04:14:31.423Z,3.08
2016-12-04T04:15:31.123Z,2.97
2016-12-04T04:16:31.451Z,2.93
2016-12-04T04:17:31.149Z,3.03
2016-12-04T04:18:31.477Z,3.04
2016-12-04T04:19:31.804Z,3.03
2016-12-04T04:20:31.183Z,3.04
2016-12-04T04:21:31.831Z,3.11
2016-12-04T04:22:31.212Z,3.13
2016-12-04T04:23:31.852Z,3.03
2016-12-04T04:24:31.571Z,3.11
2016-12-04T04:25:31.578Z,3.16
2016-12-04T04:26:31.892Z,3.29
2016-12-04T04:27:31.585Z,3.45
2016-12-04T04:28:31.600Z,3.34
2016-12-04T04:29:31.927Z,3.36
2016-12-04T04:30:31.939Z,3.36
2016-12-04T04:31:31.635Z,3.36
2016-12-04T04:32:31.960Z,3.32
2016-12-04T04:33:31.659Z,3.31
2016-12-04T04:34:31.702Z,3.25
2016-12-04T04:35:32.001Z,3.41
2016-12-04T04:36:31.704Z,3.41
2016-12-04T04:37:32.022Z,3.5
2016-12-04T04:38:31.716Z,3.45
2016-12-04T04:39:31.417Z,3.37
2016-12-04T04:40:31.745Z,3.23
2016-12-04T04:41:31.758Z,3.28
2016-12-04T04:42:31.796Z,3.42
2016-12-04T04:43:31.803Z,3.55
2016-12-04T04:44:31.796Z,3.45
2016-12-04T04:45:31.494Z,3.34
2016-12-04T04:46:31.821Z,3.29
2016-12-04T04:47:31.833Z,3.5
2016-12-04T04:48:31.844Z,3.62
2016-12-04T04:49:32.174Z,3.48
2016-12-04T04:50:32.069Z,3.51
2016-12-04T04:51:32.198Z,3.31
2016-12-04T04:52:31.581Z,3.23
2016-12-04T04:53:31.919Z,3.22
2016-12-04T04:54:31.922Z,3.22
2016-12-04T04:55:32.245Z,3.18
2016-12-04T04:56:31.942Z,3.34
2016-12-04T04:57:31.638Z,3.47
2016-12-04T04:58:31.971Z,3.34
2016-12-04T04:59:31.667Z,3.4
2016-12-04T05:00:32.000Z,3.36
2016-12-04T05:01:32.007Z,3.28
2016-12-04T05:02:32.336Z,3.36
2016-12-04T05:03:32.047Z,3.34
2016-12-04T05:04:32.362Z,3.36
2016-12-04T05:05:31.743Z,3.32
2016-12-04T05:06:32.066Z,3.29
2016-12-04T05:07:32.077Z,3.26
2016-12-04T05:08:32.094Z,3.28
2016-12-04T05:09:32.107Z,3.23
2016-12-04T05:10:32.117Z,3.22
2016-12-04T05:11:32.129Z,3.18
2016-12-04T05:12:32.148Z,3.22
2016-12-04T05:13:32.472Z,3.32
2016-12-04T05:14:32.491Z,3.32
2016-12-04T05:15:32.497Z,3.31
2016-12-04T05:16:32.192Z,3.26
2016-12-04T05:17:32.521Z,3.14
2016-12-04T05:18:32.534Z,3.19
2016-12-04T05:19:32.558Z,3.26
2016-12-04T05:20:31.924Z,3.18
2016-12-04T05:21:32.588Z,3.32
2016-12-04T05:22:32.265Z,3.23
2016-12-04T05:23:31.966Z,3.29
2016-12-04T05:24:32.300Z,3.23
2016-12-04T05:25:32.302Z,3.31
2016-12-04T05:26:32.001Z,3.29
2016-12-04T05:27:32.643Z,3.31
2016-12-04T05:28:32.345Z,3.04
2016-12-04T05:29:32.039Z,3.21
2016-12-04T05:30:32.364Z,3.22
2016-12-04T05:31:32.376Z,3.1
2016-12-04T05:32:32.388Z,3.04
2016-12-04T05:33:32.719Z,3.03
2016-12-04T05:34:32.414Z,3.19
2016-12-04T05:35:32.741Z,3.29
2016-12-04T05:36:32.442Z,3.26
2016-12-04T05:37:32.457Z,3.28
2016-12-04T05:38:32.466Z,3.4
2016-12-04T05:39:32.476Z,3.34
2016-12-04T05:40:32.490Z,3.4
2016-12-04T05:41:32.499Z,3.4
2016-12-04T05:42:32.511Z,3.51
2016-12-04T05:43:32.530Z,3.59
2016-12-04T05:44:32.538Z,3.51
2016-12-04T05:45:32.547Z,3.5
2016-12-04T05:46:32.244Z,3.53
2016-12-04T05:47:32.885Z,3.6
2016-12-04T05:48:32.614Z,3.51
2016-12-04T05:49:32.605Z,3.58
2016-12-04T05:50:32.613Z,3.53
2016-12-04T05:51:32.309Z,3.58
2016-12-04T05:52:32.950Z,3.53
2016-12-04T05:53:32.329Z,3.59
2016-12-04T05:54:32.669Z,3.5
2016-12-04T05:55:32.667Z,3.41
2016-12-04T05:56:32.712Z,3.16
2016-12-04T05:57:32.381Z,3.1
2016-12-04T05:58:32.395Z,3.03
2016-12-04T05:59:32.722Z,3
2016-12-04T06:00:33.054Z,3.07
2016-12-04T06:01:32.429Z,2.9
2016-12-04T06:02:32.756Z,3.05
2016-12-04T06:03:32.453Z,3.13
2016-12-04T06:04:32.470Z,3.04
2016-12-04T06:05:33.108Z,3.13
2016-12-04T06:06:32.494Z,3.22
2016-12-04T06:07:32.819Z,3.26
2016-12-04T06:08:32.832Z,3.23
2016-12-04T06:09:32.845Z,3.18
2016-12-04T06:10:32.854Z,3.16
2016-12-04T06:11:32.555Z,3.16
2016-12-04T06:12:32.879Z,3.22
2016-12-04T06:13:32.579Z,3.32
2016-12-04T06:14:33.217Z,3.37
2016-12-04T06:15:33.230Z,3.36
2016-12-04T06:16:33.244Z,3.31
2016-12-04T06:17:32.622Z,3.34
2016-12-04T06:18:32.643Z,3.21
2016-12-04T06:19:32.648Z,3.11
2016-12-04T06:20:32.976Z,3.01
2016-12-04T06:21:32.672Z,3.11
2016-12-04T06:22:33.001Z,3
2016-12-04T06:23:33.329Z,3.08
2016-12-04T06:24:33.385Z,2.95
2016-12-04T06:25:32.725Z,2.85
2016-12-04T06:26:33.367Z,2.98
2016-12-04T06:27:33.063Z,2.93
2016-12-04T06:28:33.390Z,2.98
2016-12-04T06:29:33.087Z,3.21
2016-12-04T06:30:32.809Z,3.29
2016-12-04T06:31:32.798Z,3.14
2016-12-04T06:32:33.122Z,2.89
2016-12-04T06:33:33.141Z,2.85
2016-12-04T06:34:33.158Z,2.89
2016-12-04T06:35:33.472Z,3.1
2016-12-04T06:36:33.174Z,3.14
2016-12-04T06:37:33.185Z,3.23
2016-12-04T06:38:32.878Z,3
2016-12-04T06:39:32.892Z,3
2016-12-04T06:40:32.905Z,3.07
2016-12-04T06:41:33.238Z,3.14
2016-12-04T06:42:33.446Z,3.25
2016-12-04T06:43:33.256Z,3.28
2016-12-04T06:44:32.951Z,3.26
2016-12-04T06:45:33.595Z,3.44
2016-12-04T06:46:33.292Z,3.45
2016-12-04T06:47:33.330Z,3.22
2016-12-04T06:48:33.316Z,3.13
2016-12-04T06:49:33.014Z,3.21
2016-12-04T06:50:33.660Z,3.23
2016-12-04T06:51:33.678Z,3.31
2016-12-04T06:52:33.363Z,3.4
2016-12-04T06:53:33.375Z,3.47
2016-12-04T06:54:33.080Z,3.53
2016-12-04T06:55:33.403Z,3.36
2016-12-04T06:56:33.729Z,3.25
2016-12-04T06:57:33.739Z,3.23
2016-12-04T06:58:33.438Z,3.1
2016-12-04T06:59:33.765Z,3
2016-12-04T07:00:33.465Z,2.95
2016-12-04T07:01:33.474Z,2.9
2016-12-04T07:02:33.172Z,3
2016-12-04T07:03:33.184Z,3.18
2016-12-04T07:04:33.510Z,3.19
2016-12-04T07:05:33.834Z,3.16
2016-12-04T07:06:33.850Z,3.19
2016-12-04T07:07:33.226Z,3.21
2016-12-04T07:08:33.240Z,3.26
2016-12-04T07:09:33.884Z,3.34
2016-12-04T07:10:33.579Z,3.47
2016-12-04T07:11:33.278Z,3.6
2016-12-04T07:12:33.623Z,3.62
2016-12-04T07:13:33.932Z,3.44
2016-12-04T07:14:33.630Z,3.45
2016-12-04T07:15:33.967Z,3.5
2016-12-04T07:16:33.653Z,3.37
2016-12-04T07:17:33.988Z,3.32
2016-12-04T07:18:33.677Z,3.34
2016-12-04T07:19:33.689Z,3.36
2016-12-04T07:20:33.704Z,3.21
2016-12-04T07:21:33.404Z,3.22
2016-12-04T07:22:33.731Z,3.14
2016-12-04T07:23:33.755Z,3.19
2016-12-04T07:24:34.067Z,3.25
2016-12-04T07:25:34.082Z,3.25
2016-12-04T07:26:34.092Z,3.21
2016-12-04T07:27:33.476Z,3.25
2016-12-04T07:28:33.800Z,3.4
2016-12-04T07:29:33.808Z,3.53
2016-12-04T07:30:34.145Z,3.68
2016-12-04T07:31:33.838Z,3.66
2016-12-04T07:32:33.535Z,3.65
2016-12-04T07:33:33.878Z,3.53
2016-12-04T07:34:33.888Z,3.55
2016-12-04T07:35:33.567Z,3.44
2016-12-04T07:36:33.897Z,3.34
2016-12-04T07:37:33.912Z,3.47
2016-12-04T07:38:33.922Z,3.48
2016-12-04T07:39:33.941Z,3.48
2016-12-04T07:40:33.944Z,3.51
2016-12-04T07:41:34.272Z,3.44
2016-12-04T07:42:33.654Z,3.36
2016-12-04T07:43:34.307Z,3.23
2016-12-04T07:44:33.693Z,3.18
2016-12-04T07:45:34.321Z,3.14
2016-12-04T07:46:33.713Z,3.18
2016-12-04T07:47:34.030Z,3.14
2016-12-04T07:48:34.044Z,3.18
2016-12-04T07:49:34.059Z,3.23
2016-12-04T07:50:34.067Z,3.19
2016-12-04T07:51:34.085Z,3.31
2016-12-04T07:52:34.094Z,3.25
2016-12-04T07:53:33.794Z,3.29
2016-12-04T07:54:34.436Z,3.36
2016-12-04T07:55:34.136Z,3.37
2016-12-04T07:56:34.142Z,3.48
2016-12-04T07:57:34.154Z,3.63
2016-12-04T07:58:34.166Z,3.55
2016-12-04T07:59:33.863Z,3.48
2016-12-04T08:00:34.251Z,3.36
2016-12-04T08:01:33.887Z,3.31
2016-12-04T08:02:34.546Z,3.29
2016-12-04T08:03:34.241Z,3.11
2016-12-04T08:04:33.924Z,3.23
2016-12-04T08:05:34.254Z,3.23
2016-12-04T08:06:34.584Z,3.29
2016-12-04T08:07:34.594Z,3.23
2016-12-04T08:08:34.290Z,3.18
2016-12-04T08:09:34.306Z,3.08
2016-12-04T08:10:34.321Z,3.18
2016-12-04T08:11:34.013Z,3.22
2016-12-04T08:12:34.341Z,3.36
2016-12-04T08:13:34.360Z,3.29
2016-12-04T08:14:34.055Z,3.31
2016-12-04T08:15:34.696Z,3.22
2016-12-04T08:16:34.076Z,3.36
2016-12-04T08:17:34.401Z,3.16
2016-12-04T08:18:34.731Z,3.14
2016-12-04T08:19:34.111Z,3.19
2016-12-04T08:20:34.129Z,3.19
2016-12-04T08:21:34.137Z,3.31
2016-12-04T08:22:34.464Z,3.32
2016-12-04T08:23:34.165Z,3.28
2016-12-04T08:24:34.804Z,3.29
2016-12-04T08:25:34.189Z,3.32
2016-12-04T08:26:34.519Z,3.37
2016-12-04T08:27:34.552Z,3.5
2016-12-04T08:28:34.220Z,3.59
2016-12-04T08:29:34.867Z,3.77
2016-12-04T08:30:34.247Z,3.7
2016-12-04T08:31:34.578Z,3.76
2016-12-04T08:32:34.594Z,3.87
2016-12-04T08:33:34.602Z,3.66
2016-12-04T08:34:34.617Z,3.76
2016-12-04T08:35:34.628Z,3.74
2016-12-04T08:36:34.323Z,3.62
2016-12-04T08:37:34.968Z,3.23
2016-12-04T08:38:34.980Z,3.32
2016-12-04T08:39:34.365Z,3.28
2016-12-04T08:40:35.003Z,3.41
2016-12-04T08:41:34.389Z,3.47
2016-12-04T08:42:34.715Z,3.56
2016-12-04T08:43:34.725Z,3.66
2016-12-04T08:44:34.738Z,3.58
2016-12-04T08:45:34.750Z,3.5
2016-12-04T08:46:34.763Z,3.6
2016-12-04T08:47:34.779Z,3.74
2016-12-04T08:48:35.106Z,3.81
2016-12-04T08:49:34.485Z,3.81
2016-12-04T08:50:35.126Z,3.8
2016-12-04T08:51:34.853Z,3.77
2016-12-04T08:52:34.877Z,3.76
2016-12-04T08:53:34.854Z,3.7
2016-12-04T08:54:34.862Z,3.78
2016-12-04T08:55:34.879Z,3.94
2016-12-04T08:56:34.791Z,3.92
2016-12-04T08:57:34.917Z,4.01
2016-12-04T08:58:34.917Z,3.96
2016-12-04T08:59:35.244Z,4.06
2016-12-04T09:00:34.626Z,4.19
2016-12-04T09:01:34.634Z,4.28
2016-12-04T09:02:35.284Z,4.32
2016-12-04T09:03:34.979Z,4.01
2016-12-04T09:04:34.997Z,4.06
2016-12-04T09:05:35.326Z,4.1
2016-12-04T09:06:35.015Z,4.14
2016-12-04T09:07:35.044Z,4.16
2016-12-04T09:08:35.037Z,3.87
2016-12-04T09:09:35.048Z,4.05
2016-12-04T09:10:35.064Z,4.05
2016-12-04T09:11:35.075Z,3.94
2016-12-04T09:12:35.435Z,3.94
2016-12-04T09:13:35.419Z,3.84
2016-12-04T09:14:34.797Z,3.87
2016-12-04T09:15:34.814Z,3.87
2016-12-04T09:16:35.136Z,3.91
2016-12-04T09:17:35.167Z,4.01
2016-12-04T09:18:35.479Z,3.99
2016-12-04T09:19:34.872Z,3.95
2016-12-04T09:20:35.194Z,4.04
2016-12-04T09:21:35.201Z,3.98
2016-12-04T09:22:35.217Z,3.91
2016-12-04T09:23:34.911Z,3.86
2016-12-04T09:24:35.240Z,3.88
2016-12-04T09:25:35.577Z,4.01
2016-12-04T09:26:35.267Z,4.04
2016-12-04T09:27:35.273Z,4.12
2016-12-04T09:28:35.291Z,4.17
2016-12-04T09:29:35.307Z,3.94
2016-12-04T09:30:35.628Z,3.76
2016-12-04T09:31:35.328Z,3.55
2016-12-04T09:32:35.025Z,3.66
2016-12-04T09:33:35.356Z,3.53
2016-12-04T09:34:35.372Z,3.59
2016-12-04T09:35:35.393Z,3.73
2016-12-04T09:36:35.078Z,3.73
2016-12-04T09:37:35.433Z,3.78
2016-12-04T09:38:35.103Z,3.99
2016-12-04T09:39:35.114Z,3.99
2016-12-04T09:40:35.442Z,4.12
2016-12-04T09:41:35.157Z,4.1
2016-12-04T09:42:35.782Z,4.05
2016-12-04T09:43:35.479Z,3.96
2016-12-04T09:44:35.492Z,3.83
2016-12-04T09:45:35.503Z,3.87
2016-12-04T09:46:35.836Z,3.98
2016-12-04T09:47:35.526Z,4.05
2016-12-04T09:48:35.232Z,4.01
2016-12-04T09:49:35.238Z,3.99
2016-12-04T09:50:35.909Z,4.02
2016-12-04T09:51:35.895Z,3.8
2016-12-04T09:52:35.589Z,3.96
2016-12-04T09:53:35.609Z,3.87
2016-12-04T09:54:35.616Z,3.78
2016-12-04T09:55:35.632Z,3.77
2016-12-04T09:56:35.645Z,3.99
2016-12-04T09:57:35.679Z,4.05
2016-12-04T09:58:35.663Z,4.12
2016-12-04T09:59:35.676Z,4.05
2016-12-04T10:00:36.022Z,4.19
2016-12-04T10:01:36.021Z,4.13
2016-12-04T10:02:35.715Z,4.02
2016-12-04T10:03:35.410Z,4.05
2016-12-04T10:04:35.742Z,4.1
2016-12-04T10:05:35.442Z,4.08
2016-12-04T10:06:35.764Z,4.22
2016-12-04T10:07:35.784Z,4.14
2016-12-04T10:08:36.111Z,4.12
2016-12-04T10:09:35.802Z,4.14
2016-12-04T10:10:35.817Z,4.17
2016-12-04T10:11:35.833Z,4.19
2016-12-04T10:12:36.158Z,4.19
2016-12-04T10:13:35.892Z,4.26
2016-12-04T10:14:35.868Z,4.31
2016-12-04T10:15:35.562Z,4.3
2016-12-04T10:16:35.893Z,4.22
2016-12-04T10:17:35.905Z,4.24
2016-12-04T10:18:35.913Z,4.17
2016-12-04T10:19:35.943Z,4.28
2016-12-04T10:20:36.256Z,4.2
2016-12-04T10:21:35.954Z,4.13
2016-12-04T10:22:35.651Z,4.12
2016-12-04T10:23:35.979Z,4.01
2016-12-04T10:24:36.308Z,4.01
2016-12-04T10:25:36.003Z,4.1
2016-12-04T10:26:36.043Z,4.04
2016-12-04T10:27:35.713Z,4.05
2016-12-04T10:28:36.044Z,3.94
2016-12-04T10:29:36.375Z,4.08
2016-12-04T10:30:36.078Z,4.08
2016-12-04T10:31:36.083Z,3.99
2016-12-04T10:32:35.775Z,4.16
2016-12-04T10:33:36.422Z,4.12
2016-12-04T10:34:36.118Z,4.12
2016-12-04T10:35:36.455Z,4.12
2016-12-04T10:36:35.827Z,4.12
2016-12-04T10:37:36.469Z,4.13
2016-12-04T10:38:36.484Z,4.2
2016-12-04T10:39:36.509Z,4.19
2016-12-04T10:40:36.509Z,4.16
2016-12-04T10:41:36.219Z,4.26
2016-12-04T10:42:36.247Z,4.3
2016-12-04T10:43:35.941Z,4.28
2016-12-04T10:44:36.559Z,4.3
2016-12-04T10:45:36.259Z,4.12
2016-12-04T10:46:36.300Z,3.8
2016-12-04T10:47:36.597Z,3.78
2016-12-04T10:48:36.293Z,3.76
2016-12-04T10:49:35.990Z,3.74
2016-12-04T10:50:36.005Z,3.8
2016-12-04T10:51:36.334Z,3.8
2016-12-04T10:52:36.347Z,3.99
2016-12-04T10:53:36.673Z,3.95
2016-12-04T10:54:36.373Z,3.94
2016-12-04T10:55:36.384Z,4.08
2016-12-04T10:56:36.393Z,4.06
2016-12-04T10:57:36.414Z,3.96
2016-12-04T10:58:36.419Z,3.87
2016-12-04T10:59:36.753Z,4.01
2016-12-04T11:00:36.129Z,3.92
2016-12-04T11:01:36.477Z,3.91
2016-12-04T11:02:36.488Z,3.77
2016-12-04T11:03:36.482Z,3.7
2016-12-04T11:04:36.490Z,3.78
2016-12-04T11:05:36.190Z,3.94
2016-12-04T11:06:36.524Z,3.91
2016-12-04T11:07:36.844Z,3.91
2016-12-04T11:08:36.232Z,3.96
2016-12-04T11:09:36.876Z,4.06
2016-12-04T11:10:36.566Z,3.98
2016-12-04T11:11:36.270Z,4.01
2016-12-04T11:12:36.606Z,4.06
2016-12-04T11:13:36.302Z,4.05
2016-12-04T11:14:36.933Z,4.16
2016-12-04T11:15:36.317Z,4.22
2016-12-04T11:16:36.645Z,4.22
2016-12-04T11:17:36.655Z,4.24
2016-12-04T11:18:36.672Z,4.02
2016-12-04T11:19:36.368Z,3.87
2016-12-04T11:20:37.010Z,3.8
2016-12-04T11:21:36.707Z,3.84
2016-12-04T11:22:36.717Z,4.01
2016-12-04T11:23:36.748Z,4.08
2016-12-04T11:24:36.744Z,3.91
2016-12-04T11:25:37.075Z,4.05
2016-12-04T11:26:36.769Z,3.99
2016-12-04T11:27:36.466Z,4.02
2016-12-04T11:28:36.480Z,3.98
2016-12-04T11:29:36.491Z,3.95
2016-12-04T11:30:37.136Z,4.05
2016-12-04T11:31:36.514Z,4.13
2016-12-04T11:32:36.527Z,4.14
2016-12-04T11:33:36.863Z,4.16
2016-12-04T11:34:37.194Z,4.17
2016-12-04T11:35:36.570Z,4.2
2016-12-04T11:36:36.896Z,4.17
2016-12-04T11:37:36.908Z,4.26
2016-12-04T11:38:36.605Z,4.23
2016-12-04T11:39:36.933Z,4.24
2016-12-04T11:40:36.944Z,4.37
2016-12-04T11:41:37.278Z,4.28
2016-12-04T11:42:36.971Z,4.04
2016-12-04T11:43:36.981Z,3.94
2016-12-04T11:44:36.994Z,3.91
2016-12-04T11:45:37.337Z,3.94
2016-12-04T11:46:37.023Z,3.86
2016-12-04T11:47:36.717Z,3.84
2016-12-04T11:48:37.363Z,3.81
2016-12-04T11:49:37.056Z,3.8
2016-12-04T11:50:37.389Z,3.87
2016-12-04T11:51:36.770Z,3.73
2016-12-04T11:52:36.784Z,3.86
2016-12-04T11:53:36.793Z,3.94
2016-12-04T11:54:36.803Z,3.99
2016-12-04T11:55:36.833Z,4.04
2016-12-04T11:56:37.148Z,4.19
2016-12-04T11:57:37.187Z,4.12
2016-12-04T11:58:37.171Z,3.96
2016-12-04T11:59:37.182Z,4.05
2016-12-04T12:00:36.877Z,4.08
2016-12-04T12:01:37.529Z,3.91
2016-12-04T12:02:37.223Z,3.83
2016-12-04T12:03:36.921Z,3.86
2016-12-04T12:04:36.929Z,3.8
2016-12-04T12:05:37.276Z,3.78
2016-12-04T12:06:37.289Z,4.01
2016-12-04T12:07:37.286Z,4.04
2016-12-04T12:08:37.615Z,4.04
2016-12-04T12:09:36.992Z,4.13
2016-12-04T12:10:37.004Z,4.13
2016-12-04T12:11:37.331Z,4.05
2016-12-04T12:12:37.032Z,4.16
2016-12-04T12:13:37.369Z,4.02
2016-12-04T12:14:37.687Z,3.99
2016-12-04T12:15:37.390Z,4.01
2016-12-04T12:16:37.724Z,4.01
2016-12-04T12:17:37.410Z,4.02
2016-12-04T12:18:37.424Z,4.08
2016-12-04T12:19:37.432Z,4.02
2016-12-04T12:20:37.449Z,4.16
2016-12-04T12:21:37.777Z,4.17
2016-12-04T12:22:37.474Z,4.17
2016-12-04T12:23:37.490Z,4.22
2016-12-04T12:24:37.498Z,4.2
2016-12-04T12:25:37.513Z,4.14
2016-12-04T12:26:37.526Z,4.06
2016-12-04T12:27:37.537Z,4.13
2016-12-04T12:28:37.262Z,3.96
2016-12-04T12:29:37.567Z,4.05
2016-12-04T12:30:37.898Z,4.2
2016-12-04T12:31:37.588Z,4.01
2016-12-04T12:32:37.598Z,4.06
2016-12-04T12:33:37.612Z,4.01
2016-12-04T12:34:37.947Z,4.19
2016-12-04T12:35:37.642Z,4.24
2016-12-04T12:36:38.017Z,4.37
2016-12-04T12:37:37.660Z,4.32
2016-12-04T12:38:37.696Z,4.52
2016-12-04T12:39:38.007Z,4.26
2016-12-04T12:40:37.698Z,4.19
2016-12-04T12:41:37.713Z,4.32
2016-12-04T12:42:37.409Z,4.5
2016-12-04T12:43:38.061Z,4.59
2016-12-04T12:44:37.438Z,4.4
2016-12-04T12:45:37.444Z,4.26
2016-12-04T12:46:37.780Z,4.16
2016-12-04T12:47:37.478Z,4.16
2016-12-04T12:48:38.134Z,4.34
2016-12-04T12:49:38.129Z,4.44
2016-12-04T12:50:37.863Z,4.37
2016-12-04T12:51:37.839Z,4.24
2016-12-04T12:52:37.850Z,4.19
2016-12-04T12:53:38.191Z,4.13
2016-12-04T12:54:37.561Z,4.19
2016-12-04T12:55:37.885Z,4.17
2016-12-04T12:56:38.218Z,4.23
2016-12-04T12:57:37.598Z,4.19
2016-12-04T12:58:38.246Z,4.23
2016-12-04T12:59:37.634Z,4.22
2016-12-04T13:00:37.679Z,4.16
2016-12-04T13:01:37.657Z,4.22
2016-12-04T13:02:38.291Z,4.05
2016-12-04T13:03:37.990Z,4.02
2016-12-04T13:04:38.005Z,4.22
2016-12-04T13:05:38.015Z,4.26
2016-12-04T13:06:38.067Z,4.31
2016-12-04T13:07:38.357Z,4.31
2016-12-04T13:08:38.052Z,4.24
2016-12-04T13:09:38.065Z,3.87
2016-12-04T13:10:38.392Z,3.77
2016-12-04T13:11:38.118Z,3.65
2016-12-04T13:12:37.787Z,3.62
2016-12-04T13:13:38.114Z,3.65
2016-12-04T13:14:38.136Z,3.74
2016-12-04T13:15:38.140Z,3.76
2016-12-04T13:16:37.842Z,3.77
2016-12-04T13:17:38.490Z,3.73
2016-12-04T13:18:38.183Z,3.84
2016-12-04T13:19:38.189Z,4.01
2016-12-04T13:20:37.893Z,4.01
2016-12-04T13:21:38.553Z,4.08